Wetterdaten: Woche 14.09.20 - 20.09.20 (KW38)
Datum Zeit Temp. 2m rel. Feuchte Luftdruck Regen Wind Richtung Sonne ET UV-Index Solar Taupunkt Ben
14.09.2020 00:00 15,4 C 79 % 1025,2 hPa 0,0 mm 0,0 km/h (0 Bft) N 0,00 h 0,0 mm 0,0 UV-I 0 W/m 11,8 C 0,0 km/h (0 Bft)
14.09.2020 01:00 14,9 C 81 % 1025,1 hPa 0,0 mm 0,0 km/h (0 Bft) N 0,00 h 0,0 mm 0,0 UV-I 0 W/m 11,7 C 0,0 km/h (0 Bft)
14.09.2020 02:00 14,5 C 84 % 1025,0 hPa 0,0 mm 0,3 km/h (0 Bft) N 0,00 h 0,0 mm 0,0 UV-I 0 W/m 11,9 C 2,4 km/h (1 Bft)
14.09.2020 03:00 14,8 C 86 % 1024,8 hPa 0,0 mm 0,8 km/h (0 Bft) O 0,00 h 0,0 mm 0,0 UV-I 0 W/m 12,4 C 3,3 km/h (1 Bft)
14.09.2020 04:00 14,5 C 86 % 1024,7 hPa 0,0 mm 0,9 km/h (0 Bft) O 0,00 h 0,0 mm 0,0 UV-I 0 W/m 12,2 C 2,9 km/h (1 Bft)
14.09.2020 05:00 14,1 C 87 % 1024,6 hPa 0,0 mm 1,2 km/h (1 Bft) O 0,00 h 0,0 mm 0,0 UV-I 0 W/m 12,0 C 4,2 km/h (1 Bft)
14.09.2020 06:00 13,8 C 87 % 1024,5 hPa 0,0 mm 1,0 km/h (0 Bft) O 0,00 h 0,0 mm 0,0 UV-I 0 W/m 11,7 C 4,4 km/h (1 Bft)
14.09.2020 07:00 13,6 C 87 % 1024,7 hPa 0,0 mm 1,0 km/h (0 Bft) O 0,00 h 0,0 mm 0,0 UV-I 16 W/m 11,4 C 4,1 km/h (1 Bft)
14.09.2020 08:00 14,2 C 85 % 1024,9 hPa 0,0 mm 1,1 km/h (1 Bft) O 0,00 h 0,0 mm 0,0 UV-I 51 W/m 11,8 C 5,0 km/h (1 Bft)
14.09.2020 09:00 17,0 C 76 % 1024,9 hPa 0,0 mm 2,8 km/h (1 Bft) O 0,92 h 0,0 mm 0,0 UV-I 377 W/m 12,6 C 9,2 km/h (2 Bft)
14.09.2020 10:00 20,6 C 63 % 1025,0 hPa 0,0 mm 3,9 km/h (1 Bft) W-NW 1,00 h 0,2 mm 0,7 UV-I 578 W/m 13,3 C 12,0 km/h (2 Bft)
14.09.2020 11:00 23,9 C 54 % 1024,8 hPa 0,0 mm 4,1 km/h (1 Bft) SW 1,00 h 0,3 mm 1,3 UV-I 697 W/m 13,8 C 12,4 km/h (3 Bft)
14.09.2020 12:00 26,9 C 47 % 1024,3 hPa 0,0 mm 4,4 km/h (1 Bft) SW 1,00 h 0,4 mm 1,8 UV-I 810 W/m 14,6 C 12,6 km/h (3 Bft)
14.09.2020 13:00 29,7 C 40 % 1023,9 hPa 0,0 mm 6,7 km/h (2 Bft) S-SW 1,00 h 0,5 mm 2,2 UV-I 836 W/m 14,8 C 18,3 km/h (3 Bft)
14.09.2020 14:00 31,3 C 35 % 1023,2 hPa 0,0 mm 6,6 km/h (2 Bft) SW 1,00 h 0,5 mm 2,0 UV-I 812 W/m 14,1 C 15,7 km/h (3 Bft)
14.09.2020 15:00 31,7 C 32 % 1022,5 hPa 0,0 mm 6,4 km/h (2 Bft) SW 1,00 h 0,5 mm 1,3 UV-I 685 W/m 12,8 C 17,6 km/h (3 Bft)
14.09.2020 16:00 31,4 C 31 % 1021,9 hPa 0,0 mm 6,5 km/h (2 Bft) W-SW 1,00 h 0,4 mm 0,7 UV-I 550 W/m 12,2 C 16,8 km/h (3 Bft)
14.09.2020 17:00 30,8 C 33 % 1021,3 hPa 0,0 mm 5,2 km/h (1 Bft) W-SW 1,00 h 0,4 mm 0,0 UV-I 347 W/m 12,6 C 15,0 km/h (3 Bft)
14.09.2020 18:00 29,8 C 35 % 1020,8 hPa 0,0 mm 4,0 km/h (1 Bft) SW 1,00 h 0,3 mm 0,0 UV-I 177 W/m 12,8 C 11,7 km/h (2 Bft)
14.09.2020 19:00 28,2 C 38 % 1020,6 hPa 0,0 mm 1,7 km/h (1 Bft) SW 0,67 h 0,1 mm 0,0 UV-I 28 W/m 12,5 C 6,1 km/h (2 Bft)
14.09.2020 20:00 24,9 C 48 % 1020,6 hPa 0,0 mm 0,5 km/h (0 Bft) O 0,00 h 0,1 mm 0,0 UV-I 0 W/m 13,1 C 2,9 km/h (1 Bft)
14.09.2020 21:00 22,8 C 54 % 1021,0 hPa 0,0 mm 0,8 km/h (0 Bft) W-SW 0,00 h 0,0 mm 0,0 UV-I 0 W/m 12,8 C 2,8 km/h (1 Bft)
14.09.2020 22:00 21,8 C 57 % 1021,3 hPa 0,0 mm 2,2 km/h (1 Bft) W-SW 0,00 h 0,0 mm 0,0 UV-I 0 W/m 12,8 C 6,3 km/h (2 Bft)
14.09.2020 23:00 21,9 C 55 % 1021,2 hPa 0,0 mm 1,9 km/h (1 Bft) O 0,00 h 0,0 mm 0,0 UV-I 0 W/m 12,6 C 5,9 km/h (2 Bft)
15.09.2020 00:00 20,6 C 62 % 1021,0 hPa 0,0 mm 1,2 km/h (1 Bft) O 0,00 h 0,0 mm 0,0 UV-I 0 W/m 13,1 C 4,1 km/h (1 Bft)
15.09.2020 01:00 20,1 C 64 % 1020,8 hPa 0,0 mm 2,2 km/h (1 Bft) O 0,00 h 0,0 mm 0,0 UV-I 0 W/m 13,1 C 6,3 km/h (2 Bft)
15.09.2020 02:00 19,1 C 68 % 1020,6 hPa 0,0 mm 0,5 km/h (0 Bft) O 0,00 h 0,0 mm 0,0 UV-I 0 W/m 13,1 C 2,6 km/h (1 Bft)
15.09.2020 03:00 18,1 C 72 % 1020,3 hPa 0,0 mm 1,3 km/h (1 Bft) O 0,00 h 0,0 mm 0,0 UV-I 0 W/m 13,0 C 3,5 km/h (1 Bft)
15.09.2020 04:00 17,6 C 76 % 1020,1 hPa 0,0 mm 1,9 km/h (1 Bft) O 0,00 h 0,0 mm 0,0 UV-I 0 W/m 13,2 C 5,9 km/h (2 Bft)
15.09.2020 05:00 17,0 C 79 % 1019,8 hPa 0,0 mm 1,2 km/h (1 Bft) O 0,00 h 0,0 mm 0,0 UV-I 0 W/m 13,2 C 4,4 km/h (1 Bft)
15.09.2020 06:00 16,3 C 81 % 1019,6 hPa 0,0 mm 1,3 km/h (1 Bft) O 0,00 h 0,0 mm 0,0 UV-I 0 W/m 13,0 C 4,4 km/h (1 Bft)
15.09.2020 07:00 16,0 C 82 % 1019,7 hPa 0,0 mm 1,1 km/h (0 Bft) O 0,00 h 0,0 mm 0,0 UV-I 28 W/m 12,9 C 4,4 km/h (1 Bft)
15.09.2020 08:00 16,2 C 82 % 1019,7 hPa 0,0 mm 0,8 km/h (0 Bft) O 1,00 h 0,0 mm 0,0 UV-I 153 W/m 13,1 C 4,3 km/h (1 Bft)
15.09.2020 09:00 18,3 C 77 % 1019,8 hPa 0,0 mm 2,7 km/h (1 Bft) S-SW 0,92 h 0,0 mm 0,0 UV-I 291 W/m 14,1 C 9,2 km/h (2 Bft)
15.09.2020 10:00 21,2 C 66 % 1020,1 hPa 0,0 mm 3,5 km/h (1 Bft) SW 1,00 h 0,2 mm 0,7 UV-I 548 W/m 14,5 C 10,9 km/h (2 Bft)
15.09.2020 11:00 24,6 C 54 % 1020,0 hPa 0,0 mm 3,1 km/h (1 Bft) SW 1,00 h 0,3 mm 1,3 UV-I 694 W/m 14,6 C 10,0 km/h (2 Bft)
15.09.2020 12:00 27,6 C 45 % 1019,6 hPa 0,0 mm 3,2 km/h (1 Bft) W-SW 1,00 h 0,4 mm 1,7 UV-I 790 W/m 14,6 C 9,8 km/h (2 Bft)
15.09.2020 13:00 30,7 C 36 % 1019,1 hPa 0,0 mm 3,7 km/h (1 Bft) SW 1,00 h 0,5 mm 2,1 UV-I 831 W/m 13,7 C 10,7 km/h (2 Bft)
15.09.2020 14:00 32,9 C 29 % 1018,4 hPa 0,0 mm 3,3 km/h (1 Bft) W 1,00 h 0,5 mm 2,0 UV-I 795 W/m 12,4 C 9,4 km/h (2 Bft)
15.09.2020 15:00 33,5 C 27 % 1017,9 hPa 0,0 mm 1,9 km/h (1 Bft) W-SW 1,00 h 0,5 mm 1,3 UV-I 699 W/m 11,9 C 6,6 km/h (2 Bft)
15.09.2020 16:00 33,8 C 26 % 1017,4 hPa 0,0 mm 2,2 km/h (1 Bft) SW 1,00 h 0,4 mm 0,7 UV-I 556 W/m 11,6 C 6,8 km/h (2 Bft)
15.09.2020 17:00 33,2 C 28 % 1017,1 hPa 0,0 mm 1,1 km/h (1 Bft) N-NO 1,00 h 0,4 mm 0,0 UV-I 370 W/m 12,0 C 4,6 km/h (1 Bft)
15.09.2020 18:00 31,0 C 37 % 1017,0 hPa 0,0 mm 0,0 km/h (0 Bft) N 1,00 h 0,2 mm 0,0 UV-I 182 W/m 14,6 C 0,0 km/h (0 Bft)
15.09.2020 19:00 27,8 C 46 % 1017,0 hPa 0,0 mm 0,0 km/h (0 Bft) N 0,58 h 0,1 mm 0,0 UV-I 28 W/m 14,9 C 0,0 km/h (0 Bft)
15.09.2020 20:00 24,6 C 55 % 1017,3 hPa 0,0 mm 0,0 km/h (0 Bft) N 0,00 h 0,0 mm 0,0 UV-I 0 W/m 14,8 C 0,0 km/h (0 Bft)
15.09.2020 21:00 22,4 C 62 % 1017,6 hPa 0,0 mm 0,0 km/h (0 Bft) N 0,00 h 0,0 mm 0,0 UV-I 0 W/m 14,6 C 0,0 km/h (0 Bft)
15.09.2020 22:00 21,6 C 64 % 1017,7 hPa 0,0 mm 0,0 km/h (0 Bft) N 0,00 h 0,0 mm 0,0 UV-I 0 W/m 14,5 C 0,0 km/h (0 Bft)
15.09.2020 23:00 21,2 C 64 % 1017,7 hPa 0,0 mm 0,5 km/h (0 Bft) W-NW 0,00 h 0,0 mm 0,0 UV-I 0 W/m 14,1 C 2,6 km/h (1 Bft)
16.09.2020 00:00 20,4 C 67 % 1017,9 hPa 0,0 mm 0,1 km/h (0 Bft) W-NW 0,00 h 0,0 mm 0,0 UV-I 0 W/m 14,0 C 0,4 km/h (0 Bft)
16.09.2020 01:00 19,3 C 70 % 1017,9 hPa 0,0 mm 0,3 km/h (0 Bft) O 0,00 h 0,0 mm 0,0 UV-I 0 W/m 13,7 C 1,7 km/h (1 Bft)
16.09.2020 02:00 18,5 C 74 % 1017,9 hPa 0,0 mm 0,3 km/h (0 Bft) O 0,00 h 0,0 mm 0,0 UV-I 0 W/m 13,7 C 1,5 km/h (1 Bft)
16.09.2020 03:00 18,2 C 75 % 1017,6 hPa 0,0 mm 0,9 km/h (0 Bft) O 0,00 h 0,0 mm 0,0 UV-I 0 W/m 13,7 C 3,3 km/h (1 Bft)
16.09.2020 04:00 17,9 C 76 % 1017,5 hPa 0,0 mm 2,6 km/h (1 Bft) O 0,00 h 0,0 mm 0,0 UV-I 0 W/m 13,7 C 5,7 km/h (1 Bft)
16.09.2020 05:00 17,8 C 77 % 1017,4 hPa 0,0 mm 1,8 km/h (1 Bft) O 0,00 h 0,0 mm 0,0 UV-I 0 W/m 13,7 C 6,5 km/h (2 Bft)
16.09.2020 06:00 17,4 C 78 % 1017,4 hPa 0,0 mm 1,0 km/h (0 Bft) O 0,00 h 0,0 mm 0,0 UV-I 0 W/m 13,5 C 3,3 km/h (1 Bft)
16.09.2020 07:00 16,6 C 81 % 1018,0 hPa 0,0 mm 0,7 km/h (0 Bft) O 0,00 h 0,0 mm 0,0 UV-I 27 W/m 13,3 C 2,8 km/h (1 Bft)
16.09.2020 08:00 17,3 C 80 % 1018,4 hPa 0,0 mm 0,7 km/h (0 Bft) O 1,00 h 0,0 mm 0,0 UV-I 150 W/m 13,9 C 3,1 km/h (1 Bft)
16.09.2020 09:00 19,2 C 76 % 1018,6 hPa 0,0 mm 0,9 km/h (0 Bft) W-SW 1,00 h 0,1 mm 0,0 UV-I 342 W/m 14,8 C 4,0 km/h (1 Bft)
16.09.2020 10:00 22,6 C 65 % 1018,7 hPa 0,0 mm 5,5 km/h (1 Bft) NO 1,00 h 0,2 mm 0,6 UV-I 540 W/m 15,6 C 12,6 km/h (3 Bft)
16.09.2020 11:00 25,5 C 56 % 1018,6 hPa 0,0 mm 5,6 km/h (1 Bft) NO 1,00 h 0,3 mm 1,2 UV-I 693 W/m 16,0 C 13,1 km/h (3 Bft)
16.09.2020 12:00 26,9 C 50 % 1018,3 hPa 0,0 mm 5,5 km/h (1 Bft) N-NO 0,42 h 0,4 mm 1,2 UV-I 487 W/m 15,4 C 15,3 km/h (3 Bft)
16.09.2020 13:00 26,9 C 53 % 1018,4 hPa 0,0 mm 3,2 km/h (1 Bft) O-NO 0,33 h 0,3 mm 0,8 UV-I 344 W/m 16,3 C 10,4 km/h (2 Bft)
16.09.2020 14:00 25,7 C 60 % 1018,6 hPa 0,0 mm 1,6 km/h (1 Bft) NO 0,50 h 0,2 mm 1,2 UV-I 508 W/m 17,4 C 7,2 km/h (2 Bft)
16.09.2020 15:00 26,3 C 57 % 1018,8 hPa 0,0 mm 1,1 km/h (0 Bft) O-NO 1,00 h 0,3 mm 1,0 UV-I 615 W/m 17,0 C 5,5 km/h (1 Bft)
16.09.2020 16:00 26,4 C 54 % 1018,8 hPa 0,0 mm 0,7 km/h (0 Bft) O-NO 1,00 h 0,3 mm 0,6 UV-I 475 W/m 16,2 C 3,7 km/h (1 Bft)
16.09.2020 17:00 26,4 C 53 % 1018,9 hPa 0,0 mm 0,6 km/h (0 Bft) N 1,00 h 0,3 mm 0,0 UV-I 304 W/m 15,9 C 3,7 km/h (1 Bft)
16.09.2020 18:00 25,6 C 52 % 1019,5 hPa 0,0 mm 0,3 km/h (0 Bft) N 1,00 h 0,2 mm 0,0 UV-I 145 W/m 14,8 C 2,6 km/h (1 Bft)
16.09.2020 19:00 24,3 C 55 % 1020,0 hPa 0,0 mm 0,0 km/h (0 Bft) N 0,33 h 0,1 mm 0,0 UV-I 20 W/m 14,6 C 1,3 km/h (1 Bft)
16.09.2020 20:00 22,4 C 62 % 1020,8 hPa 0,0 mm 0,0 km/h (0 Bft) N 0,00 h 0,0 mm 0,0 UV-I 0 W/m 14,7 C 0,4 km/h (0 Bft)
16.09.2020 21:00 21,2 C 62 % 1021,8 hPa 0,0 mm 0,0 km/h (0 Bft) N 0,00 h 0,0 mm 0,0 UV-I 0 W/m 13,7 C 0,7 km/h (0 Bft)
16.09.2020 22:00 20,1 C 68 % 1022,7 hPa 0,0 mm 0,2 km/h (0 Bft) N 0,00 h 0,0 mm 0,0 UV-I 0 W/m 14,0 C 2,0 km/h (1 Bft)
16.09.2020 23:00 18,8 C 77 % 1023,5 hPa 0,0 mm 0,1 km/h (0 Bft) N 0,00 h 0,0 mm 0,0 UV-I 0 W/m 14,7 C 1,7 km/h (1 Bft)
17.09.2020 00:00 17,6 C 80 % 1024,3 hPa 0,0 mm 0,0 km/h (0 Bft) N 0,00 h 0,0 mm 0,0 UV-I 0 W/m 14,1 C 0,9 km/h (0 Bft)
17.09.2020 01:00 17,0 C 80 % 1024,9 hPa 0,0 mm 0,2 km/h (0 Bft) N 0,00 h 0,0 mm 0,0 UV-I 0 W/m 13,5 C 2,0 km/h (1 Bft)
17.09.2020 02:00 16,8 C 77 % 1024,9 hPa 0,0 mm 0,0 km/h (0 Bft) N 0,00 h 0,0 mm 0,0 UV-I 0 W/m 12,8 C 1,1 km/h (1 Bft)
17.09.2020 03:00 16,1 C 78 % 1025,1 hPa 0,0 mm 0,1 km/h (0 Bft) N 0,00 h 0,0 mm 0,0 UV-I 0 W/m 12,1 C 2,2 km/h (1 Bft)
17.09.2020 04:00 15,2 C 76 % 1025,3 hPa 0,0 mm 0,2 km/h (0 Bft) N 0,00 h 0,0 mm 0,0 UV-I 0 W/m 11,1 C 2,0 km/h (1 Bft)
17.09.2020 05:00 14,6 C 77 % 1025,3 hPa 0,0 mm 0,0 km/h (0 Bft) N 0,00 h 0,0 mm 0,0 UV-I 0 W/m 10,6 C 0,6 km/h (0 Bft)
17.09.2020 06:00 14,0 C 75 % 1025,5 hPa 0,0 mm 0,0 km/h (0 Bft) N 0,00 h 0,0 mm 0,0 UV-I 0 W/m 9,6 C 0,0 km/h (0 Bft)
17.09.2020 07:00 13,4 C 77 % 1026,1 hPa 0,0 mm 0,0 km/h (0 Bft) N 0,08 h 0,0 mm 0,0 UV-I 20 W/m 9,5 C 0,0 km/h (0 Bft)
17.09.2020 08:00 13,3 C 74 % 1026,4 hPa 0,0 mm 0,0 km/h (0 Bft) N 0,00 h 0,0 mm 0,0 UV-I 79 W/m 8,7 C 0,0 km/h (0 Bft)
17.09.2020 09:00 13,7 C 70 % 1027,1 hPa 0,0 mm 0,2 km/h (0 Bft) N 1,00 h 0,1 mm 0,0 UV-I 377 W/m 8,3 C 2,0 km/h (1 Bft)
17.09.2020 10:00 15,0 C 62 % 1027,4 hPa 0,0 mm 1,3 km/h (1 Bft) O 1,00 h 0,2 mm 0,7 UV-I 575 W/m 7,6 C 5,7 km/h (1 Bft)
17.09.2020 11:00 17,2 C 51 % 1027,0 hPa 0,0 mm 1,4 km/h (1 Bft) O 1,00 h 0,3 mm 1,5 UV-I 729 W/m 6,8 C 6,5 km/h (2 Bft)
17.09.2020 12:00 18,4 C 47 % 1026,8 hPa 0,0 mm 0,7 km/h (0 Bft) S-SW 1,00 h 0,3 mm 2,0 UV-I 819 W/m 6,9 C 3,9 km/h (1 Bft)
17.09.2020 13:00 19,5 C 47 % 1026,5 hPa 0,0 mm 0,7 km/h (0 Bft) S-SW 1,00 h 0,4 mm 2,4 UV-I 835 W/m 7,8 C 3,7 km/h (1 Bft)
17.09.2020 14:00 20,5 C 44 % 1026,1 hPa 0,0 mm 0,6 km/h (0 Bft) S-SW 1,00 h 0,4 mm 2,2 UV-I 796 W/m 7,8 C 4,1 km/h (1 Bft)
17.09.2020 15:00 21,1 C 43 % 1025,4 hPa 0,0 mm 0,8 km/h (0 Bft) S-SW 1,00 h 0,4 mm 1,5 UV-I 699 W/m 7,9 C 4,0 km/h (1 Bft)
17.09.2020 16:00 21,3 C 41 % 1024,8 hPa 0,0 mm 0,8 km/h (0 Bft) S-SW 1,00 h 0,3 mm 0,9 UV-I 553 W/m 7,5 C 3,7 km/h (1 Bft)
17.09.2020 17:00 20,8 C 42 % 1024,5 hPa 0,0 mm 1,0 km/h (0 Bft) S-SW 1,00 h 0,3 mm 0,4 UV-I 369 W/m 7,2 C 3,7 km/h (1 Bft)
17.09.2020 18:00 19,8 C 43 % 1024,7 hPa 0,0 mm 1,0 km/h (0 Bft) S-SW 1,00 h 0,2 mm 0,0 UV-I 164 W/m 6,7 C 4,2 km/h (1 Bft)
17.09.2020 19:00 18,5 C 46 % 1024,8 hPa 0,0 mm 0,5 km/h (0 Bft) O 0,58 h 0,1 mm 0,0 UV-I 28 W/m 6,7 C 2,9 km/h (1 Bft)
17.09.2020 20:00 17,2 C 50 % 1025,2 hPa 0,0 mm 0,0 km/h (0 Bft) N 0,00 h 0,0 mm 0,0 UV-I 0 W/m 6,8 C 0,6 km/h (0 Bft)
17.09.2020 21:00 16,3 C 54 % 1025,8 hPa 0,0 mm 0,3 km/h (0 Bft) O 0,00 h 0,0 mm 0,0 UV-I 0 W/m 6,9 C 2,0 km/h (1 Bft)
17.09.2020 22:00 15,4 C 58 % 1025,8 hPa 0,0 mm 0,0 km/h (0 Bft) N 0,00 h 0,0 mm 0,0 UV-I 0 W/m 7,2 C 0,9 km/h (0 Bft)
17.09.2020 23:00 14,8 C 60 % 1025,8 hPa 0,0 mm 0,1 km/h (0 Bft) N 0,00 h 0,0 mm 0,0 UV-I 0 W/m 7,1 C 0,9 km/h (0 Bft)
18.09.2020 00:00 13,9 C 62 % 1025,6 hPa 0,0 mm 0,0 km/h (0 Bft) N 0,00 h 0,0 mm 0,0 UV-I 0 W/m 6,8 C 0,0 km/h (0 Bft)
18.09.2020 01:00 12,4 C 67 % 1025,4 hPa 0,0 mm 0,0 km/h (0 Bft) N 0,00 h 0,0 mm 0,0 UV-I 0 W/m 6,5 C 0,0 km/h (0 Bft)
18.09.2020 02:00 10,7 C 72 % 1025,0 hPa 0,0 mm 0,0 km/h (0 Bft) N 0,00 h 0,0 mm 0,0 UV-I 0 W/m 5,9 C 0,0 km/h (0 Bft)
18.09.2020 03:00 10,2 C 75 % 1024,7 hPa 0,0 mm 0,0 km/h (0 Bft) N 0,00 h 0,0 mm 0,0 UV-I 0 W/m 5,9 C 0,0 km/h (0 Bft)
18.09.2020 04:00 9,3 C 78 % 1024,5 hPa 0,0 mm 0,0 km/h (0 Bft) N 0,00 h 0,0 mm 0,0 UV-I 0 W/m 5,6 C 0,0 km/h (0 Bft)
18.09.2020 05:00 8,6 C 80 % 1024,2 hPa 0,0 mm 0,0 km/h (0 Bft) N 0,00 h 0,0 mm 0,0 UV-I 0 W/m 5,4 C 0,0 km/h (0 Bft)
18.09.2020 06:00 8,1 C 82 % 1024,2 hPa 0,0 mm 0,0 km/h (0 Bft) N 0,00 h 0,0 mm 0,0 UV-I 0 W/m 5,2 C 0,0 km/h (0 Bft)
18.09.2020 07:00 7,8 C 84 % 1024,4 hPa 0,0 mm 0,0 km/h (0 Bft) N 0,58 h 0,0 mm 0,0 UV-I 32 W/m 5,2 C 0,0 km/h (0 Bft)
18.09.2020 08:00 9,2 C 82 % 1024,6 hPa 0,0 mm 0,0 km/h (0 Bft) O 1,00 h 0,0 mm 0,0 UV-I 162 W/m 6,3 C 0,6 km/h (0 Bft)
18.09.2020 09:00 13,0 C 66 % 1024,7 hPa 0,0 mm 4,4 km/h (1 Bft) O 1,00 h 0,0 mm 0,0 UV-I 363 W/m 6,7 C 11,8 km/h (2 Bft)
18.09.2020 10:00 16,0 C 56 % 1024,6 hPa 0,0 mm 5,7 km/h (1 Bft) O 1,00 h 0,2 mm 0,7 UV-I 546 W/m 7,1 C 14,3 km/h (3 Bft)
18.09.2020 11:00 18,7 C 49 % 1024,2 hPa 0,0 mm 5,7 km/h (1 Bft) O 1,00 h 0,3 mm 1,4 UV-I 706 W/m 7,9 C 14,3 km/h (3 Bft)
18.09.2020 12:00 21,3 C 46 % 1023,7 hPa 0,0 mm 6,8 km/h (2 Bft) S-SW 1,00 h 0,4 mm 2,0 UV-I 810 W/m 9,1 C 15,9 km/h (3 Bft)
18.09.2020 13:00 23,6 C 43 % 1023,1 hPa 0,0 mm 6,7 km/h (2 Bft) SW 1,00 h 0,4 mm 2,4 UV-I 844 W/m 10,3 C 16,5 km/h (3 Bft)
18.09.2020 14:00 25,2 C 40 % 1022,6 hPa 0,0 mm 6,4 km/h (2 Bft) S-SW 1,00 h 0,5 mm 2,1 UV-I 800 W/m 10,5 C 18,1 km/h (3 Bft)
18.09.2020 15:00 25,5 C 38 % 1022,0 hPa 0,0 mm 5,6 km/h (1 Bft) S-SW 1,00 h 0,5 mm 1,4 UV-I 699 W/m 10,1 C 14,6 km/h (3 Bft)
18.09.2020 16:00 25,3 C 37 % 1021,5 hPa 0,0 mm 5,6 km/h (1 Bft) S 1,00 h 0,4 mm 0,8 UV-I 542 W/m 9,6 C 15,7 km/h (3 Bft)
18.09.2020 17:00 24,6 C 37 % 1021,1 hPa 0,0 mm 5,4 km/h (1 Bft) S-SW 1,00 h 0,3 mm 0,0 UV-I 353 W/m 8,9 C 13,5 km/h (3 Bft)
18.09.2020 18:00 23,3 C 39 % 1020,9 hPa 0,0 mm 3,4 km/h (1 Bft) S-SW 1,00 h 0,2 mm 0,0 UV-I 151 W/m 8,4 C 10,5 km/h (2 Bft)
18.09.2020 19:00 21,4 C 44 % 1020,9 hPa 0,0 mm 1,1 km/h (1 Bft) O 0,50 h 0,1 mm 0,0 UV-I 28 W/m 8,7 C 4,2 km/h (1 Bft)
18.09.2020 20:00 19,1 C 51 % 1021,0 hPa 0,0 mm 0,5 km/h (0 Bft) O 0,00 h 0,0 mm 0,0 UV-I 0 W/m 8,6 C 2,0 km/h (1 Bft)
18.09.2020 21:00 17,3 C 56 % 1021,0 hPa 0,0 mm 0,7 km/h (0 Bft) O 0,00 h 0,0 mm 0,0 UV-I 0 W/m 8,3 C 2,2 km/h (1 Bft)
18.09.2020 22:00 16,2 C 57 % 1020,8 hPa 0,0 mm 1,6 km/h (1 Bft) O 0,00 h 0,0 mm 0,0 UV-I 0 W/m 7,7 C 4,0 km/h (1 Bft)
18.09.2020 23:00 15,2 C 60 % 1020,6 hPa 0,0 mm 0,2 km/h (0 Bft) N 0,00 h 0,0 mm 0,0 UV-I 0 W/m 7,4 C 1,7 km/h (1 Bft)
19.09.2020 00:00 14,0 C 63 % 1020,4 hPa 0,0 mm 0,0 km/h (0 Bft) N 0,00 h 0,0 mm 0,0 UV-I 0 W/m 7,0 C 0,4 km/h (0 Bft)
19.09.2020 01:00 13,0 C 66 % 1020,1 hPa 0,0 mm 0,0 km/h (0 Bft) N 0,00 h 0,0 mm 0,0 UV-I 0 W/m 6,8 C 0,4 km/h (0 Bft)
19.09.2020 02:00 11,7 C 70 % 1019,9 hPa 0,0 mm 0,0 km/h (0 Bft) N 0,00 h 0,0 mm 0,0 UV-I 0 W/m 6,5 C 0,0 km/h (0 Bft)
19.09.2020 03:00 11,0 C 73 % 1019,6 hPa 0,0 mm 0,2 km/h (0 Bft) O 0,00 h 0,0 mm 0,0 UV-I 0 W/m 6,3 C 1,1 km/h (1 Bft)
19.09.2020 04:00 11,1 C 72 % 1019,0 hPa 0,0 mm 1,8 km/h (1 Bft) O 0,00 h 0,0 mm 0,0 UV-I 0 W/m 6,3 C 4,6 km/h (1 Bft)
19.09.2020 05:00 12,5 C 66 % 1018,7 hPa 0,0 mm 1,2 km/h (1 Bft) O 0,00 h 0,0 mm 0,0 UV-I 0 W/m 6,3 C 5,0 km/h (1 Bft)
19.09.2020 06:00 11,7 C 68 % 1018,4 hPa 0,0 mm 1,0 km/h (0 Bft) O 0,00 h 0,0 mm 0,0 UV-I 0 W/m 6,1 C 5,0 km/h (1 Bft)
19.09.2020 07:00 12,2 C 66 % 1018,4 hPa 0,0 mm 3,1 km/h (1 Bft) O 0,00 h 0,0 mm 0,0 UV-I 19 W/m 5,9 C 7,8 km/h (2 Bft)
19.09.2020 08:00 13,4 C 62 % 1018,5 hPa 0,0 mm 3,6 km/h (1 Bft) O 0,08 h 0,0 mm 0,0 UV-I 80 W/m 6,2 C 9,4 km/h (2 Bft)
19.09.2020 09:00 15,1 C 55 % 1018,5 hPa 0,0 mm 7,9 km/h (2 Bft) O 1,00 h 0,1 mm 0,0 UV-I 349 W/m 6,2 C 21,3 km/h (4 Bft)
19.09.2020 10:00 17,0 C 50 % 1018,7 hPa 0,0 mm 6,8 km/h (2 Bft) O 1,00 h 0,2 mm 0,7 UV-I 556 W/m 6,6 C 18,1 km/h (3 Bft)
19.09.2020 11:00 19,5 C 44 % 1018,4 hPa 0,0 mm 7,6 km/h (2 Bft) O 1,00 h 0,3 mm 1,4 UV-I 710 W/m 7,0 C 19,4 km/h (3 Bft)
19.09.2020 12:00 22,1 C 37 % 1018,0 hPa 0,0 mm 7,6 km/h (2 Bft) O 1,00 h 0,4 mm 1,9 UV-I 802 W/m 6,6 C 18,1 km/h (3 Bft)
19.09.2020 13:00 25,0 C 31 % 1017,6 hPa 0,0 mm 6,3 km/h (2 Bft) S-SW 1,00 h 0,5 mm 2,3 UV-I 829 W/m 6,4 C 17,2 km/h (3 Bft)
19.09.2020 14:00 27,1 C 27 % 1017,1 hPa 0,0 mm 5,9 km/h (2 Bft) SW 1,00 h 0,5 mm 2,0 UV-I 790 W/m 6,2 C 15,7 km/h (3 Bft)
19.09.2020 15:00 27,7 C 26 % 1016,4 hPa 0,0 mm 4,4 km/h (1 Bft) SW 1,00 h 0,5 mm 1,3 UV-I 687 W/m 6,4 C 12,8 km/h (3 Bft)
19.09.2020 16:00 27,4 C 26 % 1016,0 hPa 0,0 mm 2,6 km/h (1 Bft) SW 1,00 h 0,4 mm 0,7 UV-I 539 W/m 6,3 C 10,0 km/h (2 Bft)
19.09.2020 17:00 26,8 C 25 % 1015,5 hPa 0,0 mm 3,0 km/h (1 Bft) SW 1,00 h 0,3 mm 0,0 UV-I 355 W/m 5,3 C 9,8 km/h (2 Bft)
19.09.2020 18:00 25,6 C 28 % 1015,4 hPa 0,0 mm 1,6 km/h (1 Bft) SW 1,00 h 0,2 mm 0,0 UV-I 160 W/m 5,7 C 5,5 km/h (1 Bft)
19.09.2020 19:00 23,3 C 37 % 1015,3 hPa 0,0 mm 0,2 km/h (0 Bft) N 0,50 h 0,1 mm 0,0 UV-I 25 W/m 7,8 C 1,5 km/h (1 Bft)
19.09.2020 20:00 20,0 C 46 % 1015,4 hPa 0,0 mm 0,0 km/h (0 Bft) N 0,00 h 0,0 mm 0,0 UV-I 0 W/m 7,9 C 0,0 km/h (0 Bft)
19.09.2020 21:00 17,4 C 53 % 1015,8 hPa 0,0 mm 0,0 km/h (0 Bft) N 0,00 h 0,0 mm 0,0 UV-I 0 W/m 7,8 C 0,0 km/h (0 Bft)
19.09.2020 22:00 15,7 C 60 % 1016,0 hPa 0,0 mm 0,0 km/h (0 Bft) N 0,00 h 0,0 mm 0,0 UV-I 0 W/m 7,9 C 0,2 km/h (0 Bft)
19.09.2020 23:00 14,6 C 63 % 1016,4 hPa 0,0 mm 0,0 km/h (0 Bft) N 0,00 h 0,0 mm 0,0 UV-I 0 W/m 7,7 C 0,0 km/h (0 Bft)
20.09.2020 00:00 13,6 C 67 % 1016,4 hPa 0,0 mm 0,0 km/h (0 Bft) N 0,00 h 0,0 mm 0,0 UV-I 0 W/m 7,6 C 0,0 km/h (0 Bft)
20.09.2020 01:00 12,5 C 70 % 1016,1 hPa 0,0 mm 0,0 km/h (0 Bft) O 0,00 h 0,0 mm 0,0 UV-I 0 W/m 7,2 C 0,0 km/h (0 Bft)
20.09.2020 02:00 12,1 C 71 % 1016,0 hPa 0,0 mm 0,3 km/h (0 Bft) O 0,00 h 0,0 mm 0,0 UV-I 0 W/m 7,0 C 1,3 km/h (1 Bft)
20.09.2020 03:00 11,7 C 71 % 1016,0 hPa 0,0 mm 0,4 km/h (0 Bft) O 0,00 h 0,0 mm 0,0 UV-I 0 W/m 6,7 C 2,0 km/h (1 Bft)
20.09.2020 04:00 11,4 C 70 % 1016,0 hPa 0,0 mm 0,9 km/h (0 Bft) O 0,00 h 0,0 mm 0,0 UV-I 0 W/m 6,1 C 2,6 km/h (1 Bft)
20.09.2020 05:00 10,6 C 72 % 1016,2 hPa 0,0 mm 0,1 km/h (0 Bft) O 0,00 h 0,0 mm 0,0 UV-I 0 W/m 5,6 C 0,9 km/h (0 Bft)
20.09.2020 06:00 9,7 C 76 % 1016,2 hPa 0,0 mm 0,3 km/h (0 Bft) O 0,00 h 0,0 mm 0,0 UV-I 0 W/m 5,7 C 0,9 km/h (0 Bft)
20.09.2020 07:00 9,1 C 79 % 1016,2 hPa 0,0 mm 0,0 km/h (0 Bft) N 0,00 h 0,0 mm 0,0 UV-I 17 W/m 5,6 C 0,0 km/h (0 Bft)
20.09.2020 08:00 9,2 C 82 % 1016,3 hPa 0,0 mm 0,0 km/h (0 Bft) N 0,17 h 0,0 mm 0,0 UV-I 85 W/m 6,2 C 0,0 km/h (0 Bft)
20.09.2020 09:00 11,4 C 77 % 1016,4 hPa 0,0 mm 0,0 km/h (0 Bft) N 1,00 h 0,0 mm 0,0 UV-I 347 W/m 7,5 C 0,6 km/h (0 Bft)
20.09.2020 10:00 14,8 C 62 % 1016,7 hPa 0,0 mm 0,6 km/h (0 Bft) SW 1,00 h 0,2 mm 0,6 UV-I 446 W/m 7,5 C 3,5 km/h (1 Bft)
20.09.2020 11:00 18,2 C 51 % 1016,7 hPa 0,0 mm 0,7 km/h (0 Bft) O 1,00 h 0,2 mm 1,2 UV-I 592 W/m 7,7 C 3,1 km/h (1 Bft)
20.09.2020 12:00 20,8 C 42 % 1016,3 hPa 0,0 mm 0,5 km/h (0 Bft) W-SW 1,00 h 0,3 mm 1,7 UV-I 736 W/m 7,5 C 2,4 km/h (1 Bft)
20.09.2020 13:00 23,9 C 33 % 1015,8 hPa 0,0 mm 2,8 km/h (1 Bft) W-SW 1,00 h 0,4 mm 2,1 UV-I 776 W/m 6,8 C 9,1 km/h (2 Bft)
20.09.2020 14:00 24,8 C 30 % 1015,6 hPa 0,0 mm 0,4 km/h (0 Bft) N-NO 1,00 h 0,4 mm 1,8 UV-I 694 W/m 5,8 C 3,0 km/h (1 Bft)
20.09.2020 15:00 25,1 C 32 % 1015,2 hPa 0,0 mm 1,2 km/h (1 Bft) O-NO 1,00 h 0,4 mm 1,2 UV-I 646 W/m 7,1 C 6,3 km/h (2 Bft)
20.09.2020 16:00 25,0 C 31 % 1015,0 hPa 0,0 mm 0,3 km/h (0 Bft) NO 1,00 h 0,4 mm 0,7 UV-I 534 W/m 6,8 C 2,6 km/h (1 Bft)
20.09.2020 17:00 24,8 C 30 % 1014,8 hPa 0,0 mm 0,1 km/h (0 Bft) N 1,00 h 0,3 mm 0,0 UV-I 355 W/m 6,0 C 2,2 km/h (1 Bft)
20.09.2020 18:00 24,1 C 28 % 1014,9 hPa 0,0 mm 0,1 km/h (0 Bft) N 1,00 h 0,2 mm 0,0 UV-I 150 W/m 4,3 C 1,8 km/h (1 Bft)
20.09.2020 19:00 22,4 C 35 % 1015,1 hPa 0,0 mm 0,0 km/h (0 Bft) N 0,42 h 0,1 mm 0,0 UV-I 21 W/m 6,3 C 0,6 km/h (0 Bft)
20.09.2020 20:00 20,6 C 42 % 1015,7 hPa 0,0 mm 0,0 km/h (0 Bft) N 0,00 h 0,0 mm 0,0 UV-I 0 W/m 7,1 C 0,0 km/h (0 Bft)
20.09.2020 21:00 18,1 C 49 % 1016,0 hPa 0,0 mm 0,0 km/h (0 Bft) N 0,00 h 0,0 mm 0,0 UV-I 0 W/m 7,2 C 0,0 km/h (0 Bft)
20.09.2020 22:00 16,1 C 58 % 1016,3 hPa 0,0 mm 0,0 km/h (0 Bft) N 0,00 h 0,0 mm 0,0 UV-I 0 W/m 7,9 C 0,0 km/h (0 Bft)
20.09.2020 23:00 14,6 C 64 % 1016,5 hPa 0,0 mm 0,0 km/h (0 Bft) N 0,00 h 0,0 mm 0,0 UV-I 0 W/m 8,0 C 0,0 km/h (0 Bft)
Min-Datum _ 18.09.20 15.09.20 20.09.20 - 14.09.20 - - - - - 20.09.20 14.09.20
_ Min-Zeit 07:10 16:10 16:35 - 00:00 - - - - - 18:25 00:00
Minimum _ 7,7 C 25 % 1014,8 hPa - 0,0 km/h (0 Bft) - - - - - 3,6 C 0,0 km/h (0 Bft)
Max-Datum _ 15.09.20 14.09.20 17.09.20 14.09.20 16.09.20 - 14.09.20 14.09.20 17.09.20 16.09.20 16.09.20 18.09.20
_ Max-Zeit 16:10 04:45 09:55 00:00 12:10 - 09:05 14:00 13:10 12:45 14:45 10:30
Maximum _ 34,0 C 87 % 1027,6 hPa 0,0 mm 11,6 km/h
N-NO (2 Bft)
- 0,08 h 0,5 mm 2,4 UV-I 879 W/m 18,0 C 28,9 km/h
O (5 Bft)
Durchschnitt _ 19,4 C 58 % 1020,5 hPa #0,0 mm 1,7 km/h (1 Bft) O #75:35 h #21,945 mm 1,4 UV-I 439 W/m 10,1 C 5,2 km/h (1 Bft)



© 1998 - 2020 www.pulheimwetter.de